Time;durP1;ratioP1;P1;durP2;ratioP2;P2;SDS_P1;SDS_P2;PMS_P1;PMS_P2;Temp;Humidity;BMP_temperature;BMP_pressure;BME280_temperature;BME280_humidity;BME280_pressure;Samples;Min_cycle;Max_cycle;Signal;HPM_P1;HPM_P2
2021/03/29 00:01:12;;;;;;;;;;;23.00;30.20;;;;;;5051058;28;19916;-57
2021/03/29 00:03:37;;;;;;;;;;;23.00;30.30;;;;;;5054465;28;19913;-59
2021/03/29 00:06:03;;;;;;;;;;;23.00;30.20;;;;;;5052817;28;20008;-57
2021/03/29 00:08:30;;;;;;;;;;;23.00;30.20;;;;;;5053634;28;19917;-50
2021/03/29 00:10:57;;;;;;;;;;;23.00;30.30;;;;;;5053293;28;19909;-57
2021/03/29 00:13:24;;;;;;;;;;;23.00;30.20;;;;;;5053953;28;19909;-57
2021/03/29 00:15:50;;;;;;;;;;;23.00;30.20;;;;;;5053819;28;19912;-53
2021/03/29 00:18:16;;;;;;;;;;;23.00;30.20;;;;;;5053634;28;19909;-56
2021/03/29 00:20:44;;;;;;;;;;;23.00;30.20;;;;;;5053217;28;19970;-60
2021/03/29 00:23:10;;;;;;;;;;;23.00;30.20;;;;;;5052992;28;19940;-55
2021/03/29 00:25:36;;;;;;;;;;;23.00;30.20;;;;;;5052192;28;19965;-51
2021/03/29 00:28:02;;;;;;;;;;;23.00;30.20;;;;;;5053320;28;19909;-57
2021/03/29 00:30:35;;;;;;;;;;;23.00;30.20;;;;;;5052784;28;19992;-54
2021/03/29 00:33:02;;;;;;;;;;;22.90;30.20;;;;;;5053466;28;19919;-58
2021/03/29 00:35:28;;;;;;;;;;;22.90;30.20;;;;;;5052646;28;19948;-55
2021/03/29 00:37:55;;;;;;;;;;;22.90;30.20;;;;;;5052840;28;19912;-60
2021/03/29 00:40:22;;;;;;;;;;;22.90;30.20;;;;;;5052908;28;20011;-57
2021/03/29 00:42:49;;;;;;;;;;;22.90;30.20;;;;;;5052939;28;19951;-53
2021/03/29 00:45:16;;;;;;;;;;;22.90;30.20;;;;;;5052680;28;19974;-55
2021/03/29 00:47:42;;;;;;;;;;;22.90;30.20;;;;;;5053018;28;19919;-56
2021/03/29 00:50:12;;;;;;;;;;;22.90;30.20;;;;;;5050803;28;20004;-57
2021/03/29 00:52:40;;;;;;;;;;;22.90;30.20;;;;;;5043703;28;19952;-54
2021/03/29 00:55:10;;;;;;;;;;;22.90;30.20;;;;;;5053385;28;20324;-57
2021/03/29 00:57:37;;;;;;;;;;;22.90;30.20;;;;;;5052990;28;19932;-54
2021/03/29 01:00:10;;;;;;;;;;;22.80;30.20;;;;;;5052207;28;20019;-55
2021/03/29 01:02:36;;;;;;;;;;;22.80;30.20;;;;;;5051006;28;20278;-55
2021/03/29 01:05:04;;;;;;;;;;;22.80;30.20;;;;;;5052424;28;19999;-53
2021/03/29 01:07:30;;;;;;;;;;;22.80;30.20;;;;;;5051865;28;19917;-55
2021/03/29 01:09:55;;;;;;;;;;;22.80;30.20;;;;;;5053251;28;19909;-58
2021/03/29 01:12:21;;;;;;;;;;;22.80;30.20;;;;;;5052005;28;19919;-55
2021/03/29 01:14:48;;;;;;;;;;;22.80;30.20;;;;;;5055944;28;19962;-58
2021/03/29 01:17:20;;;;;;;;;;;22.80;30.20;;;;;;5056644;28;19909;-56
2021/03/29 01:19:46;;;;;;;;;;;22.70;30.20;;;;;;5055156;28;19912;-59
2021/03/29 01:22:22;;;;;;;;;;;22.70;30.20;;;;;;5055888;28;20069;-50
2021/03/29 01:24:55;;;;;;;;;;;22.70;30.20;;;;;;5055589;28;19952;-52
2021/03/29 01:27:23;;;;;;;;;;;22.70;30.20;;;;;;5056312;28;20231;-56
2021/03/29 01:29:49;;;;;;;;;;;22.70;30.20;;;;;;5056893;28;19912;-52
2021/03/29 01:32:15;;;;;;;;;;;22.70;30.20;;;;;;5054345;28;19947;-57
2021/03/29 01:34:41;;;;;;;;;;;22.70;30.20;;;;;;5055546;28;20002;-54
2021/03/29 01:37:08;;;;;;;;;;;22.70;30.20;;;;;;5056391;28;19966;-56
2021/03/29 01:39:34;;;;;;;;;;;22.70;30.20;;;;;;5056219;28;19908;-53
2021/03/29 01:42:00;;;;;;;;;;;22.70;30.20;;;;;;5055353;28;19935;-56
2021/03/29 01:44:26;;;;;;;;;;;22.60;30.20;;;;;;5056574;28;20416;-57
2021/03/29 01:46:53;;;;;;;;;;;22.60;30.20;;;;;;5055426;28;19960;-61
2021/03/29 01:49:19;;;;;;;;;;;22.60;30.20;;;;;;5055582;28;20021;-57
2021/03/29 01:51:45;;;;;;;;;;;22.60;30.20;;;;;;5056269;28;19908;-55
2021/03/29 01:54:13;;;;;;;;;;;22.60;30.20;;;;;;5055815;28;20292;-56
2021/03/29 01:56:39;;;;;;;;;;;22.60;30.20;;;;;;5056479;28;19909;-52
2021/03/29 01:59:04;;;;;;;;;;;22.60;30.20;;;;;;5056351;28;20273;-54
2021/03/29 02:01:30;;;;;;;;;;;22.60;30.20;;;;;;5053509;28;19920;-58
2021/03/29 02:03:56;;;;;;;;;;;22.60;30.20;;;;;;5056107;28;19920;-53
2021/03/29 02:06:21;;;;;;;;;;;22.60;30.20;;;;;;5056250;28;19908;-55
2021/03/29 02:08:48;;;;;;;;;;;22.60;30.20;;;;;;5055898;28;20260;-53
2021/03/29 02:11:15;;;;;;;;;;;22.60;30.20;;;;;;5055729;28;19935;-56
2021/03/29 02:13:42;;;;;;;;;;;22.60;30.20;;;;;;5055524;28;20321;-57
2021/03/29 02:16:09;;;;;;;;;;;22.60;30.20;;;;;;5055389;28;19912;-59
2021/03/29 02:18:38;;;;;;;;;;;22.50;30.20;;;;;;5055361;28;19919;-58
2021/03/29 02:21:08;;;;;;;;;;;22.50;30.20;;;;;;5055582;28;19920;-54
2021/03/29 02:23:34;;;;;;;;;;;22.50;30.20;;;;;;5055762;28;19982;-56
2021/03/29 02:26:01;;;;;;;;;;;22.50;30.20;;;;;;5054432;28;19967;-56
2021/03/29 02:28:27;;;;;;;;;;;22.50;30.10;;;;;;5055731;28;19970;-57
2021/03/29 02:30:52;;;;;;;;;;;22.50;30.20;;;;;;5053701;28;19908;-58
2021/03/29 02:33:19;;;;;;;;;;;22.50;30.20;;;;;;5055400;28;20299;-58
2021/03/29 02:35:45;;;;;;;;;;;22.50;30.20;;;;;;5055161;28;19908;-57
2021/03/29 02:38:12;;;;;;;;;;;22.50;30.20;;;;;;5055678;28;19921;-52
2021/03/29 02:40:38;;;;;;;;;;;22.50;30.20;;;;;;5055125;28;19927;-59
2021/03/29 02:43:04;;;;;;;;;;;22.50;30.20;;;;;;5055617;28;20025;-56
2021/03/29 02:45:35;;;;;;;;;;;22.50;30.20;;;;;;5054857;28;20021;-52
2021/03/29 02:48:03;;;;;;;;;;;22.50;30.40;;;;;;5054785;28;20392;-58
2021/03/29 02:50:30;;;;;;;;;;;22.50;30.20;;;;;;5054899;28;19916;-56
2021/03/29 02:52:57;;;;;;;;;;;22.40;30.10;;;;;;5054828;28;19916;-54
2021/03/29 02:55:25;;;;;;;;;;;22.40;30.10;;;;;;5055270;28;20331;-55
2021/03/29 02:57:52;;;;;;;;;;;22.50;30.20;;;;;;5054737;28;20304;-53
2021/03/29 03:00:19;;;;;;;;;;;22.40;30.10;;;;;;5055190;28;20425;-54
2021/03/29 03:02:45;;;;;;;;;;;22.40;30.10;;;;;;5054376;28;19908;-56
2021/03/29 03:05:11;;;;;;;;;;;22.40;30.10;;;;;;5055346;28;19927;-57
2021/03/29 03:07:38;;;;;;;;;;;22.40;30.20;;;;;;5052200;28;20378;-58
2021/03/29 03:10:05;;;;;;;;;;;22.40;30.20;;;;;;5054517;28;20335;-55
2021/03/29 03:12:31;;;;;;;;;;;22.40;30.20;;;;;;5054651;28;19999;-56
2021/03/29 03:14:57;;;;;;;;;;;22.40;30.20;;;;;;5054568;28;19944;-53
2021/03/29 03:17:23;;;;;;;;;;;22.40;30.20;;;;;;5054030;28;19956;-58
2021/03/29 03:19:49;;;;;;;;;;;22.40;30.20;;;;;;5054119;28;19959;-55
2021/03/29 03:22:14;;;;;;;;;;;22.40;30.20;;;;;;5053425;28;19967;-58
2021/03/29 03:24:40;;;;;;;;;;;22.40;30.20;;;;;;5054070;28;19950;-54
2021/03/29 03:27:07;;;;;;;;;;;22.40;30.20;;;;;;5054604;28;19935;-54
2021/03/29 03:29:36;;;;;;;;;;;22.30;30.20;;;;;;5054205;28;19920;-57
2021/03/29 03:32:02;;;;;;;;;;;22.30;30.20;;;;;;5054129;28;19975;-54
2021/03/29 03:34:27;;;;;;;;;;;22.30;30.20;;;;;;5052760;28;19908;-56
2021/03/29 03:36:53;;;;;;;;;;;22.30;30.20;;;;;;5052186;28;20292;-56
2021/03/29 03:39:20;;;;;;;;;;;22.30;30.20;;;;;;5049462;28;20336;-54
2021/03/29 03:41:45;;;;;;;;;;;22.30;30.20;;;;;;5053795;28;19917;-58
2021/03/29 03:44:13;;;;;;;;;;;22.30;30.20;;;;;;5054126;28;19923;-59
2021/03/29 03:46:39;;;;;;;;;;;22.30;30.20;;;;;;5053334;28;19909;-56
2021/03/29 03:49:08;;;;;;;;;;;22.30;30.20;;;;;;5054181;28;19909;-56
2021/03/29 03:51:34;;;;;;;;;;;22.30;30.30;;;;;;5051995;28;20243;-56
2021/03/29 03:54:00;;;;;;;;;;;22.30;30.20;;;;;;5054256;28;19916;-58
2021/03/29 03:56:30;;;;;;;;;;;22.30;30.30;;;;;;5052102;28;20007;-58
2021/03/29 03:58:56;;;;;;;;;;;22.20;30.20;;;;;;5053080;28;19919;-54
2021/03/29 04:01:22;;;;;;;;;;;22.30;30.30;;;;;;5053626;28;19916;-52
2021/03/29 04:03:47;;;;;;;;;;;22.20;30.20;;;;;;5053655;28;19909;-57
2021/03/29 04:06:13;;;;;;;;;;;22.20;30.20;;;;;;5053043;28;19974;-51
2021/03/29 04:08:39;;;;;;;;;;;22.20;30.30;;;;;;5054073;28;20401;-54
2021/03/29 04:11:06;;;;;;;;;;;22.20;30.20;;;;;;5052614;28;19931;-56
2021/03/29 04:13:32;;;;;;;;;;;22.20;30.20;;;;;;5053358;28;19925;-57
2021/03/29 04:15:59;;;;;;;;;;;22.20;30.20;;;;;;5052671;28;19917;-53
2021/03/29 04:18:24;;;;;;;;;;;22.20;30.30;;;;;;5050837;28;19963;-52
2021/03/29 04:20:51;;;;;;;;;;;22.20;30.30;;;;;;5053326;28;19916;-56
2021/03/29 04:23:17;;;;;;;;;;;22.20;30.30;;;;;;5053337;28;20237;-54
2021/03/29 04:25:43;;;;;;;;;;;22.20;30.30;;;;;;5053468;28;19908;-60
2021/03/29 04:28:09;;;;;;;;;;;22.10;30.20;;;;;;5053204;28;19917;-57
2021/03/29 04:30:34;;;;;;;;;;;22.10;30.20;;;;;;5050339;28;19908;-59
2021/03/29 04:33:00;;;;;;;;;;;22.20;30.30;;;;;;5053621;28;19919;-58
2021/03/29 04:35:26;;;;;;;;;;;22.20;30.30;;;;;;5052811;28;19912;-56
2021/03/29 04:37:53;;;;;;;;;;;22.10;30.30;;;;;;5053743;28;19983;-57
2021/03/29 04:40:20;;;;;;;;;;;22.10;30.30;;;;;;5052828;28;20264;-59
2021/03/29 04:42:45;;;;;;;;;;;22.10;30.30;;;;;;5052907;28;19913;-55
2021/03/29 04:45:12;;;;;;;;;;;22.10;30.30;;;;;;5052942;28;19908;-53
2021/03/29 04:47:38;;;;;;;;;;;22.10;30.40;;;;;;5052833;28;19908;-54
2021/03/29 04:50:04;;;;;;;;;;;22.10;30.40;;;;;;5052584;28;20302;-53
2021/03/29 04:52:30;;;;;;;;;;;22.10;30.40;;;;;;5052917;28;19991;-55
2021/03/29 04:54:56;;;;;;;;;;;22.00;30.30;;;;;;5052021;28;20316;-48
2021/03/29 04:57:21;;;;;;;;;;;22.10;30.40;;;;;;5053186;28;19909;-53
2021/03/29 04:59:47;;;;;;;;;;;22.10;30.40;;;;;;5052928;28;19912;-55
2021/03/29 05:02:13;;;;;;;;;;;22.00;30.40;;;;;;5053036;28;20023;-52
2021/03/29 05:04:38;;;;;;;;;;;22.00;30.40;;;;;;5052917;28;19909;-52
2021/03/29 05:07:08;;;;;;;;;;;22.00;30.40;;;;;;5052002;28;19909;-55
2021/03/29 05:09:33;;;;;;;;;;;22.00;30.40;;;;;;5052467;28;19916;-53
2021/03/29 05:12:07;;;;;;;;;;;22.00;30.40;;;;;;5052306;28;19913;-51
2021/03/29 05:14:33;;;;;;;;;;;22.00;30.40;;;;;;5052358;28;19908;-52
2021/03/29 05:16:58;;;;;;;;;;;22.00;30.40;;;;;;5052616;28;19909;-58
2021/03/29 05:19:24;;;;;;;;;;;22.00;30.40;;;;;;5052171;28;19923;-55
2021/03/29 05:21:50;;;;;;;;;;;22.00;30.40;;;;;;5052927;28;20240;-52
2021/03/29 05:24:15;;;;;;;;;;;22.00;30.40;;;;;;5051739;28;20254;-53
2021/03/29 05:26:41;;;;;;;;;;;22.00;30.40;;;;;;5051255;28;20330;-51
2021/03/29 05:29:07;;;;;;;;;;;22.00;30.40;;;;;;5052391;28;19909;-49
2021/03/29 05:31:39;;;;;;;;;;;22.00;30.40;;;;;;5051376;28;19982;-54
2021/03/29 05:34:05;;;;;;;;;;;22.00;30.50;;;;;;5050787;28;19909;-58
2021/03/29 05:36:31;;;;;;;;;;;22.00;30.50;;;;;;5052396;28;19966;-57
2021/03/29 05:38:56;;;;;;;;;;;22.00;30.50;;;;;;5052436;28;19977;-58
2021/03/29 05:41:22;;;;;;;;;;;22.00;30.50;;;;;;5052396;28;19927;-54
2021/03/29 05:43:48;;;;;;;;;;;22.00;30.50;;;;;;5052649;28;20263;-53
2021/03/29 05:46:14;;;;;;;;;;;22.00;30.50;;;;;;5052717;28;19908;-56
2021/03/29 05:48:40;;;;;;;;;;;22.00;30.50;;;;;;5052531;28;19917;-57
2021/03/29 05:51:09;;;;;;;;;;;22.00;30.60;;;;;;5051954;28;19927;-56
2021/03/29 05:53:35;;;;;;;;;;;21.90;30.50;;;;;;5052143;28;20013;-56
2021/03/29 05:56:01;;;;;;;;;;;21.90;30.60;;;;;;5052610;28;20294;-54
2021/03/29 06:00:54;;;;;;;;;;;21.90;30.60;;;;;;5054823;28;20332;-54
2021/03/29 06:03:22;;;;;;;;;;;21.90;30.60;;;;;;5056584;28;20031;-58
2021/03/29 06:05:49;;;;;;;;;;;21.90;30.60;;;;;;5054597;28;19996;-51
2021/03/29 06:08:15;;;;;;;;;;;21.90;30.60;;;;;;5056056;28;19927;-52
2021/03/29 06:10:41;;;;;;;;;;;21.90;30.60;;;;;;5054483;28;19924;-54
2021/03/29 06:13:33;;;;;;;;;;;21.90;30.60;;;;;;5054882;28;20299;-57
2021/03/29 06:16:09;;;;;;;;;;;21.90;30.60;;;;;;5052865;28;19919;-59
2021/03/29 06:18:36;;;;;;;;;;;21.90;30.60;;;;;;5055945;28;19909;-56
2021/03/29 06:21:07;;;;;;;;;;;21.90;30.60;;;;;;5056387;28;20281;-53
2021/03/29 06:23:33;;;;;;;;;;;21.90;30.60;;;;;;5055497;28;19986;-57
2021/03/29 06:26:18;;;;;;;;;;;21.90;31.30;;;;;;5055609;28;19940;-60
2021/03/29 06:28:45;;;;;;;;;;;21.90;30.60;;;;;;5055473;28;19909;-58
2021/03/29 06:31:20;;;;;;;;;;;21.90;30.60;;;;;;5052615;28;19919;-58
2021/03/29 06:33:46;;;;;;;;;;;21.90;30.70;;;;;;5055755;28;19913;-57
2021/03/29 06:36:22;;;;;;;;;;;21.90;30.70;;;;;;5055761;28;19963;-52
2021/03/29 06:38:49;;;;;;;;;;;21.90;30.70;;;;;;5055577;28;19966;-57
2021/03/29 06:41:22;;;;;;;;;;;21.90;30.70;;;;;;5055416;28;19917;-58
2021/03/29 06:43:48;;;;;;;;;;;21.90;30.70;;;;;;5055490;28;19909;-56
2021/03/29 06:46:24;;;;;;;;;;;21.90;30.70;;;;;;5054571;28;19919;-49
2021/03/29 06:48:52;;;;;;;;;;;21.90;31.40;;;;;;5055264;28;19978;-55
2021/03/29 06:51:18;;;;;;;;;;;21.90;31.40;;;;;;5055057;28;19923;-55
2021/03/29 06:53:55;;;;;;;;;;;21.90;30.90;;;;;;5054940;28;19909;-54
2021/03/29 06:56:24;;;;;;;;;;;22.00;30.90;;;;;;5054732;28;20277;-51
2021/03/29 06:58:51;;;;;;;;;;;22.00;30.90;;;;;;5053263;28;19966;-54
2021/03/29 07:01:18;;;;;;;;;;;22.00;30.90;;;;;;5053303;28;19920;-56
2021/03/29 07:03:45;;;;;;;;;;;22.00;30.90;;;;;;5053750;28;19996;-53
2021/03/29 07:06:11;;;;;;;;;;;22.00;30.80;;;;;;5053484;28;20043;-55
2021/03/29 07:08:38;;;;;;;;;;;22.10;30.70;;;;;;5052001;28;19909;-56
2021/03/29 07:11:03;;;;;;;;;;;22.10;30.70;;;;;;5054523;28;20326;-52
2021/03/29 07:13:29;;;;;;;;;;;22.10;30.60;;;;;;5054996;28;19944;-56
2021/03/29 07:15:58;;;;;;;;;;;22.20;30.60;;;;;;5054422;28;19919;-50
2021/03/29 07:18:24;;;;;;;;;;;22.20;30.50;;;;;;5054116;28;19908;-52
2021/03/29 07:20:50;;;;;;;;;;;22.20;30.50;;;;;;5053791;28;19928;-53
2021/03/29 07:23:16;;;;;;;;;;;22.30;30.50;;;;;;5051511;28;19928;-59
2021/03/29 07:25:43;;;;;;;;;;;22.30;30.50;;;;;;5050096;28;19924;-56
2021/03/29 07:28:09;;;;;;;;;;;22.30;30.40;;;;;;5055316;28;20003;-58
2021/03/29 07:31:01;;;;;;;;;;;22.20;30.50;;;;;;5051307;28;19991;-54
2021/03/29 07:34:02;;;;;;;;;;;22.20;30.60;;;;;;5052321;28;19970;-54
2021/03/29 07:36:41;;;;;;;;;;;22.20;30.70;;;;;;4973297;28;19969;-56
2021/03/29 07:39:07;;;;;;;;;;;22.10;30.70;;;;;;5044088;28;19968;-54
2021/03/29 07:41:33;;;;;;;;;;;22.10;30.70;;;;;;5049456;28;20366;-54
2021/03/29 07:44:15;;;;;;;;;;;22.20;30.70;;;;;;5054304;28;19995;-55
2021/03/29 07:46:43;;;;;;;;;;;22.20;30.60;;;;;;5053655;28;19908;-52
2021/03/29 07:49:27;;;;;;;;;;;22.20;30.60;;;;;;5053621;28;20366;-54
2021/03/29 07:52:11;;;;;;;;;;;22.20;30.60;;;;;;5053368;28;20008;-57
2021/03/29 07:54:49;;;;;;;;;;;22.20;30.70;;;;;;5053734;28;20302;-51
2021/03/29 07:57:35;;;;;;;;;;;22.30;30.70;;;;;;5054025;28;19909;-53
2021/03/29 08:00:01;;;;;;;;;;;22.30;30.60;;;;;;5053625;28;19913;-46
2021/03/29 08:02:33;;;;;;;;;;;22.40;30.60;;;;;;5053634;28;19920;-53
2021/03/29 08:05:00;;;;;;;;;;;22.50;30.60;;;;;;5053716;28;19915;-55
2021/03/29 08:07:42;;;;;;;;;;;22.50;30.50;;;;;;5053915;28;19952;-54
2021/03/29 08:10:09;;;;;;;;;;;22.60;30.50;;;;;;5048826;28;20356;-52
2021/03/29 08:12:36;;;;;;;;;;;22.70;30.40;;;;;;5053436;28;19974;-54
2021/03/29 08:15:03;;;;;;;;;;;22.80;30.40;;;;;;5052591;28;20355;-55
2021/03/29 08:17:44;;;;;;;;;;;22.80;30.30;;;;;;5052569;28;20004;-51
2021/03/29 08:20:15;;;;;;;;;;;22.90;30.40;;;;;;5050350;28;19919;-55
2021/03/29 08:22:40;;;;;;;;;;;23.00;30.40;;;;;;5052486;28;19928;-56
2021/03/29 08:25:07;;;;;;;;;;;23.00;30.30;;;;;;5053974;28;19920;-52
2021/03/29 08:27:32;;;;;;;;;;;23.00;30.30;;;;;;5053536;28;19952;-52
2021/03/29 08:30:24;;;;;;;;;;;23.10;30.20;;;;;;5054091;28;19955;-51
2021/03/29 08:32:50;;;;;;;;;;;23.10;30.20;;;;;;5042015;28;19928;-52
2021/03/29 08:35:18;;;;;;;;;;;23.20;30.20;;;;;;5054413;28;20027;-54
2021/03/29 08:37:45;;;;;;;;;;;23.20;30.20;;;;;;5053047;28;19971;-54
2021/03/29 08:40:15;;;;;;;;;;;23.30;30.20;;;;;;5053687;28;20354;-54
2021/03/29 08:42:42;;;;;;;;;;;23.30;30.20;;;;;;5052923;28;19940;-60
2021/03/29 08:45:13;;;;;;;;;;;23.30;30.20;;;;;;5053365;28;19918;-60
2021/03/29 08:47:41;;;;;;;;;;;23.30;30.20;;;;;;5055228;28;19919;-59
2021/03/29 08:50:19;;;;;;;;;;;23.30;30.20;;;;;;5046439;28;20311;-56
2021/03/29 08:52:46;;;;;;;;;;;23.40;30.20;;;;;;5034956;28;20256;-59
2021/03/29 08:55:15;;;;;;;;;;;23.40;30.20;;;;;;5042964;28;19908;-56
2021/03/29 08:57:42;;;;;;;;;;;23.40;30.20;;;;;;5054225;28;19919;-60
2021/03/29 09:00:12;;;;;;;;;;;23.40;30.20;;;;;;5053899;28;20216;-60
2021/03/29 09:02:38;;;;;;;;;;;23.30;30.20;;;;;;5054088;28;20007;-57
2021/03/29 09:05:06;;;;;;;;;;;23.40;30.20;;;;;;5054473;28;19971;-57
2021/03/29 09:07:41;;;;;;;;;;;23.40;30.30;;;;;;5054549;28;19919;-60
2021/03/29 09:10:15;;;;;;;;;;;23.40;30.30;;;;;;5054956;28;19919;-57
2021/03/29 09:12:42;;;;;;;;;;;23.40;30.30;;;;;;5054639;28;19908;-59
2021/03/29 09:15:14;;;;;;;;;;;23.40;30.90;;;;;;5054157;28;19909;-61
2021/03/29 09:17:40;;;;;;;;;;;23.40;30.30;;;;;;5054214;28;19909;-52
2021/03/29 09:20:16;;;;;;;;;;;23.40;30.30;;;;;;5053636;28;19920;-59
2021/03/29 09:22:42;;;;;;;;;;;23.40;30.30;;;;;;5054495;28;20323;-58
2021/03/29 09:25:09;;;;;;;;;;;23.40;30.30;;;;;;5054427;28;20003;-52
2021/03/29 09:27:40;;;;;;;;;;;23.50;30.30;;;;;;5052679;28;19913;-54
2021/03/29 09:30:07;;;;;;;;;;;23.50;30.30;;;;;;5051363;28;19909;-59
2021/03/29 09:32:34;;;;;;;;;;;23.50;30.30;;;;;;5052407;28;19920;-54
2021/03/29 09:35:00;;;;;;;;;;;23.50;30.30;;;;;;5053597;28;20244;-56
2021/03/29 09:37:26;;;;;;;;;;;23.50;30.30;;;;;;5057093;28;19909;-56
2021/03/29 09:39:59;;;;;;;;;;;23.50;30.20;;;;;;5056571;28;19948;-56
2021/03/29 09:42:34;;;;;;;;;;;23.60;30.30;;;;;;5054561;28;20426;-57
2021/03/29 09:45:00;;;;;;;;;;;23.60;30.30;;;;;;5056301;28;19928;-59
2021/03/29 09:47:28;;;;;;;;;;;23.60;30.20;;;;;;5056654;28;20235;-54
2021/03/29 09:49:53;;;;;;;;;;;23.60;30.20;;;;;;5056349;28;19948;-57
2021/03/29 09:52:19;;;;;;;;;;;23.60;30.20;;;;;;5056426;28;19959;-55
2021/03/29 09:54:45;;;;;;;;;;;23.60;30.20;;;;;;5056028;28;19921;-59
2021/03/29 09:57:16;;;;;;;;;;;23.70;30.20;;;;;;5055686;28;19908;-56
2021/03/29 09:59:42;;;;;;;;;;;23.60;30.10;;;;;;5056596;28;19932;-57
2021/03/29 10:02:22;;;;;;;;;;;23.70;30.20;;;;;;5056789;28;19974;-59
2021/03/29 10:04:58;;;;;;;;;;;23.70;30.10;;;;;;5054649;28;19913;-58
2021/03/29 10:07:23;;;;;;;;;;;23.70;30.00;;;;;;5053899;28;19985;-59
2021/03/29 10:09:56;;;;;;;;;;;23.70;30.10;;;;;;5055942;28;20313;-60
2021/03/29 10:12:23;;;;;;;;;;;23.70;30.00;;;;;;5055020;28;20346;-51
2021/03/29 10:14:50;;;;;;;;;;;23.70;30.00;;;;;;5051687;28;20205;-57
2021/03/29 10:17:17;;;;;;;;;;;23.70;30.00;;;;;;5055775;28;19909;-58
2021/03/29 10:19:43;;;;;;;;;;;23.80;30.00;;;;;;5055964;28;20355;-56
2021/03/29 10:22:13;;;;;;;;;;;23.80;30.00;;;;;;5055751;28;19956;-56
2021/03/29 10:24:59;;;;;;;;;;;23.80;30.00;;;;;;5053637;28;19916;-52
2021/03/29 10:27:36;;;;;;;;;;;23.80;30.00;;;;;;5054180;28;19908;-55
2021/03/29 10:30:02;;;;;;;;;;;23.80;30.00;;;;;;5055574;28;19927;-57
2021/03/29 10:32:28;;;;;;;;;;;23.80;30.00;;;;;;5055491;28;19909;-60
2021/03/29 10:34:53;;;;;;;;;;;23.80;30.00;;;;;;5053064;28;19915;-52
2021/03/29 10:37:19;;;;;;;;;;;23.80;30.00;;;;;;5051371;28;19996;-63
2021/03/29 10:39:46;;;;;;;;;;;23.80;30.00;;;;;;5053517;28;19938;-54
2021/03/29 10:42:13;;;;;;;;;;;23.80;30.00;;;;;;5055677;28;19924;-56
2021/03/29 10:44:38;;;;;;;;;;;23.80;30.00;;;;;;5055128;28;19967;-55
2021/03/29 10:47:04;;;;;;;;;;;23.80;30.00;;;;;;5053878;28;20259;-53
2021/03/29 10:49:30;;;;;;;;;;;23.80;30.00;;;;;;5055104;28;19913;-59
2021/03/29 10:51:55;;;;;;;;;;;23.80;30.00;;;;;;5055109;28;20332;-50
2021/03/29 10:54:21;;;;;;;;;;;23.80;30.00;;;;;;5055214;28;19909;-56
2021/03/29 10:56:46;;;;;;;;;;;23.90;30.00;;;;;;5054057;28;19920;-54
2021/03/29 10:59:12;;;;;;;;;;;23.90;30.00;;;;;;5054969;28;19917;-51
2021/03/29 11:01:38;;;;;;;;;;;23.90;30.60;;;;;;5054616;28;19920;-57
2021/03/29 11:04:04;;;;;;;;;;;23.90;30.00;;;;;;5052307;28;19912;-50
2021/03/29 11:06:29;;;;;;;;;;;23.90;30.00;;;;;;5054789;28;19924;-53
2021/03/29 11:08:55;;;;;;;;;;;23.90;30.00;;;;;;5053609;28;19916;-51
2021/03/29 11:11:20;;;;;;;;;;;23.90;30.00;;;;;;5054821;28;19912;-48
2021/03/29 11:13:46;;;;;;;;;;;24.00;30.00;;;;;;5054118;28;20044;-52
2021/03/29 11:16:13;;;;;;;;;;;24.00;30.00;;;;;;5055252;28;19909;-53
2021/03/29 11:18:39;;;;;;;;;;;24.10;30.00;;;;;;5053881;28;20339;-55
2021/03/29 11:21:05;;;;;;;;;;;24.10;30.00;;;;;;5054413;28;19916;-52
2021/03/29 11:23:30;;;;;;;;;;;24.10;30.00;;;;;;5054207;28;19952;-55
2021/03/29 11:25:57;;;;;;;;;;;24.10;30.00;;;;;;5055161;28;19929;-54
2021/03/29 11:28:22;;;;;;;;;;;24.10;30.00;;;;;;5054465;28;19909;-56
2021/03/29 11:30:49;;;;;;;;;;;24.10;30.00;;;;;;5054331;28;20351;-54
2021/03/29 11:33:14;;;;;;;;;;;24.10;29.90;;;;;;5053148;28;19956;-50
2021/03/29 11:35:40;;;;;;;;;;;24.10;29.90;;;;;;5054700;28;20080;-49
2021/03/29 11:38:06;;;;;;;;;;;24.10;29.90;;;;;;5054636;28;19909;-55
2021/03/29 11:40:31;;;;;;;;;;;24.10;29.90;;;;;;5054164;28;19928;-57
2021/03/29 11:42:57;;;;;;;;;;;24.10;29.80;;;;;;5054425;28;19980;-52
2021/03/29 11:45:23;;;;;;;;;;;24.20;29.90;;;;;;5054323;28;19919;-53
2021/03/29 11:47:49;;;;;;;;;;;24.10;29.80;;;;;;5054562;28;19916;-53
2021/03/29 11:50:15;;;;;;;;;;;24.20;29.80;;;;;;5054333;28;20007;-51
2021/03/29 11:52:41;;;;;;;;;;;24.20;29.80;;;;;;5054202;28;19908;-53
2021/03/29 11:55:07;;;;;;;;;;;24.20;29.80;;;;;;5054402;28;19971;-57
2021/03/29 11:57:33;;;;;;;;;;;24.20;29.70;;;;;;5052112;28;19917;-55
2021/03/29 12:00:00;;;;;;;;;;;24.20;29.60;;;;;;5053873;28;19908;-51
2021/03/29 12:02:30;;;;;;;;;;;24.20;29.60;;;;;;5052641;28;19927;-54
2021/03/29 12:07:38;;;;;;;;;;;24.20;29.50;;;;;;5054538;28;19963;-54
2021/03/29 12:12:51;;;;;;;;;;;24.20;29.40;;;;;;5053455;28;19917;-50
2021/03/29 12:15:17;;;;;;;;;;;24.20;29.30;;;;;;5053852;28;19908;-52
2021/03/29 12:17:46;;;;;;;;;;;24.30;29.40;;;;;;5053147;28;19909;-49
2021/03/29 12:20:13;;;;;;;;;;;24.20;29.30;;;;;;5053199;28;19909;-54
2021/03/29 12:22:40;;;;;;;;;;;24.30;29.30;;;;;;5052874;28;19955;-57
2021/03/29 12:25:06;;;;;;;;;;;24.30;29.30;;;;;;5053593;28;19920;-54
2021/03/29 12:27:32;;;;;;;;;;;24.30;29.20;;;;;;5054085;28;20259;-55
2021/03/29 12:30:03;;;;;;;;;;;24.30;29.20;;;;;;5053522;28;19920;-56
2021/03/29 12:32:29;;;;;;;;;;;24.30;29.20;;;;;;5051772;28;19908;-60
2021/03/29 12:34:56;;;;;;;;;;;24.30;29.10;;;;;;5053080;28;19909;-57
2021/03/29 12:37:24;;;;;;;;;;;24.30;29.20;;;;;;5045715;28;19909;-54
2021/03/29 12:39:56;;;;;;;;;;;24.30;29.20;;;;;;5049449;28;19916;-54
2021/03/29 12:42:23;;;;;;;;;;;24.30;29.10;;;;;;5051054;28;20004;-54
2021/03/29 12:44:49;;;;;;;;;;;24.40;29.10;;;;;;5052214;28;19960;-60
2021/03/29 12:47:17;;;;;;;;;;;24.40;29.10;;;;;;5052164;28;20368;-54
2021/03/29 12:49:42;;;;;;;;;;;24.40;29.10;;;;;;5051861;28;20231;-62
2021/03/29 12:52:08;;;;;;;;;;;24.40;29.00;;;;;;5053104;28;19996;-56
2021/03/29 12:54:36;;;;;;;;;;;24.50;29.00;;;;;;5049871;28;19909;-59
2021/03/29 12:57:02;;;;;;;;;;;24.50;29.00;;;;;;5050606;28;19909;-60
2021/03/29 12:59:29;;;;;;;;;;;24.50;28.90;;;;;;5051942;28;19913;-57
2021/03/29 13:01:55;;;;;;;;;;;24.50;28.90;;;;;;5049703;28;19964;-59
2021/03/29 13:04:25;;;;;;;;;;;24.50;28.90;;;;;;5052058;28;20255;-56
2021/03/29 13:11:54;;;;;;;;;;;24.40;28.80;;;;;;5054568;28;19908;-54
2021/03/29 13:14:19;;;;;;;;;;;24.40;28.80;;;;;;5054281;28;19913;-61
2021/03/29 13:16:45;;;;;;;;;;;24.40;28.70;;;;;;5052692;28;19920;-56
2021/03/29 13:19:11;;;;;;;;;;;24.40;28.70;;;;;;5054326;28;19931;-57
2021/03/29 13:21:36;;;;;;;;;;;24.40;28.60;;;;;;5053318;28;20014;-60
2021/03/29 13:24:02;;;;;;;;;;;24.40;28.60;;;;;;5054124;28;19917;-60
2021/03/29 13:26:28;;;;;;;;;;;24.40;28.50;;;;;;5054757;28;20280;-58
2021/03/29 13:28:54;;;;;;;;;;;24.40;28.40;;;;;;5053330;28;19920;-59
2021/03/29 13:31:22;;;;;;;;;;;24.40;28.40;;;;;;5054099;28;19913;-58
2021/03/29 13:33:48;;;;;;;;;;;24.40;28.30;;;;;;5053526;28;19913;-56
2021/03/29 13:36:14;;;;;;;;;;;24.40;28.30;;;;;;5054575;28;20003;-61
2021/03/29 13:38:39;;;;;;;;;;;24.40;28.20;;;;;;5054206;28;20442;-60
2021/03/29 13:41:09;;;;;;;;;;;24.40;28.20;;;;;;5052768;28;20020;-54
2021/03/29 13:43:38;;;;;;;;;;;24.40;28.10;;;;;;5054487;28;19974;-62
2021/03/29 13:46:04;;;;;;;;;;;24.40;28.10;;;;;;5052775;28;19908;-58
2021/03/29 13:48:29;;;;;;;;;;;24.40;28.10;;;;;;5054064;28;20387;-56
2021/03/29 13:50:56;;;;;;;;;;;24.40;28.00;;;;;;5054287;28;19959;-54
2021/03/29 13:53:25;;;;;;;;;;;24.40;28.00;;;;;;5053659;28;19927;-58
2021/03/29 13:55:51;;;;;;;;;;;24.30;27.90;;;;;;5053678;28;20328;-54
2021/03/29 13:58:17;;;;;;;;;;;24.40;27.90;;;;;;5054183;28;19926;-58
2021/03/29 14:00:44;;;;;;;;;;;24.40;27.90;;;;;;5054122;28;20015;-57
2021/03/29 14:03:13;;;;;;;;;;;24.30;27.80;;;;;;5053803;28;20007;-55
2021/03/29 14:05:39;;;;;;;;;;;24.30;27.80;;;;;;5053824;28;20030;-54
2021/03/29 14:08:05;;;;;;;;;;;24.30;27.70;;;;;;5054193;28;19919;-54
2021/03/29 14:10:31;;;;;;;;;;;24.30;27.70;;;;;;5053986;28;19995;-56
2021/03/29 14:13:00;;;;;;;;;;;24.30;27.70;;;;;;5054056;28;20239;-54
2021/03/29 14:15:26;;;;;;;;;;;24.30;27.70;;;;;;5052997;28;19920;-58
2021/03/29 14:17:52;;;;;;;;;;;24.30;27.70;;;;;;5052460;28;20247;-58
2021/03/29 14:20:24;;;;;;;;;;;24.30;27.70;;;;;;5047184;28;20293;-58
2021/03/29 14:22:50;;;;;;;;;;;24.30;27.70;;;;;;5056793;28;19908;-56
2021/03/29 14:25:19;;;;;;;;;;;24.30;27.70;;;;;;5056064;28;19919;-56
2021/03/29 14:27:45;;;;;;;;;;;24.30;27.80;;;;;;5042489;28;19909;-53
2021/03/29 14:30:12;;;;;;;;;;;24.30;27.90;;;;;;5046922;28;19909;-54
2021/03/29 14:32:38;;;;;;;;;;;24.30;28.00;;;;;;5035915;28;19992;-56